Time;durP1;ratioP1;P1;durP2;ratioP2;P2;SDS_P1;SDS_P2;PMS_P1;PMS_P2;Temp;Humidity;BMP_temperature;BMP_pressure;BME280_temperature;BME280_humidity;BME280_pressure;Samples;Min_cycle;Max_cycle;Signal;HPM_P1;HPM_P2
2022/07/24 00:02:22;;;;;;;18.35;14.57;;;;;;;;;;5047496;28;20044;-76
2022/07/24 00:04:48;;;;;;;15.95;13.68;;;;;;;;;;5018808;28;20025;-76
2022/07/24 00:07:13;;;;;;;15.80;14.20;;;;;;;;;;5038247;28;20286;-75
2022/07/24 00:09:38;;;;;;;16.60;13.63;;;;;;;;;;5036670;28;20054;-77
2022/07/24 00:12:04;;;;;;;15.13;13.43;;;;;;;;;;5018153;28;20105;-77
2022/07/24 00:14:29;;;;;;;14.30;12.70;;;;;;;;;;5041385;28;20028;-77
2022/07/24 00:16:56;;;;;;;14.98;12.68;;;;;;;;;;5019104;28;20039;-76
2022/07/24 00:19:22;;;;;;;16.30;12.10;;;;;;;;;;5057068;28;20048;-76
2022/07/24 00:21:47;;;;;;;18.92;11.85;;;;;;;;;;5033333;28;20499;-76
2022/07/24 00:24:12;;;;;;;14.48;11.85;;;;;;;;;;5044439;28;20032;-76
2022/07/24 00:26:38;;;;;;;14.07;12.48;;;;;;;;;;5026715;28;20107;-77
2022/07/24 00:29:06;;;;;;;14.65;11.27;;;;;;;;;;5055148;28;20482;-76
2022/07/24 00:31:31;;;;;;;16.45;12.73;;;;;;;;;;5027050;28;20127;-76
2022/07/24 00:33:57;;;;;;;13.75;12.35;;;;;;;;;;5035941;28;20032;-76
2022/07/24 00:36:22;;;;;;;16.33;12.82;;;;;;;;;;5038434;28;20024;-75
2022/07/24 00:38:48;;;;;;;13.43;11.98;;;;;;;;;;5055130;28;20107;-75
2022/07/24 00:41:13;;;;;;;14.75;11.80;;;;;;;;;;5018775;28;20044;-77
2022/07/24 00:44:00;;;;;;;15.40;12.50;;;;;;;;;;5039769;28;20074;-77
2022/07/24 00:46:26;;;;;;;12.10;10.90;;;;;;;;;;5024007;28;20406;-76
2022/07/24 00:48:51;;;;;;;13.98;12.50;;;;;;;;;;5039283;28;20115;-77
2022/07/24 00:51:17;;;;;;;13.93;11.13;;;;;;;;;;5027177;28;20060;-76
2022/07/24 00:53:42;;;;;;;16.42;12.20;;;;;;;;;;5020066;28;20473;-76
2022/07/24 00:56:07;;;;;;;15.40;10.18;;;;;;;;;;5054192;28;20035;-76
2022/07/24 00:58:33;;;;;;;15.05;11.50;;;;;;;;;;5024052;28;20123;-76
2022/07/24 01:00:59;;;;;;;11.85;10.52;;;;;;;;;;5022315;28;20516;-76
2022/07/24 01:03:24;;;;;;;12.02;10.40;;;;;;;;;;5047873;28;20482;-77
2022/07/24 01:05:50;;;;;;;15.48;10.55;;;;;;;;;;5037803;28;20120;-76
2022/07/24 01:08:15;;;;;;;12.52;10.57;;;;;;;;;;5010513;28;20660;-76
2022/07/24 01:10:41;;;;;;;15.80;10.88;;;;;;;;;;5017789;28;20132;-76
2022/07/24 01:13:06;;;;;;;12.38;10.63;;;;;;;;;;5034424;28;20388;-76
2022/07/24 01:15:31;;;;;;;13.13;10.80;;;;;;;;;;5041340;28;20025;-75
2022/07/24 01:17:57;;;;;;;12.40;11.10;;;;;;;;;;5041914;28;20520;-77
2022/07/24 01:20:25;;;;;;;14.07;11.15;;;;;;;;;;5054141;28;20036;-77
2022/07/24 01:22:51;;;;;;;13.05;10.85;;;;;;;;;;5036902;28;20063;-76
2022/07/24 01:25:16;;;;;;;11.93;10.15;;;;;;;;;;5045387;28;20119;-76
2022/07/24 01:27:41;;;;;;;13.30;9.93;;;;;;;;;;5041521;28;20246;-77
2022/07/24 01:30:07;;;;;;;13.43;10.85;;;;;;;;;;5052122;28;20058;-77
2022/07/24 01:32:33;;;;;;;12.13;10.00;;;;;;;;;;5016828;28;20036;-76
2022/07/24 01:34:58;;;;;;;13.32;11.25;;;;;;;;;;5038198;28;20035;-76
2022/07/24 01:37:23;;;;;;;14.68;10.85;;;;;;;;;;5055736;28;20530;-75
2022/07/24 01:39:49;;;;;;;13.30;10.95;;;;;;;;;;5035804;28;20138;-76
2022/07/24 01:42:14;;;;;;;12.57;10.65;;;;;;;;;;5030186;28;20472;-76
2022/07/24 01:44:39;;;;;;;14.75;11.10;;;;;;;;;;5056029;28;20111;-77
2022/07/24 01:47:05;;;;;;;24.15;11.30;;;;;;;;;;5013269;28;20357;-77
2022/07/24 01:49:33;;;;;;;13.63;11.18;;;;;;;;;;5052621;28;20510;-76
2022/07/24 01:51:59;;;;;;;13.27;10.68;;;;;;;;;;5029253;28;20032;-75
2022/07/24 01:54:24;;;;;;;13.80;11.30;;;;;;;;;;5020948;28;20139;-76
2022/07/24 01:56:50;;;;;;;13.85;9.55;;;;;;;;;;5054141;28;20129;-76
2022/07/24 01:59:15;;;;;;;13.25;10.50;;;;;;;;;;5034232;28;20064;-76
2022/07/24 02:01:40;;;;;;;15.20;10.65;;;;;;;;;;5020327;28;21553;-75
2022/07/24 02:04:06;;;;;;;11.18;9.98;;;;;;;;;;5022016;28;20037;-75
2022/07/24 02:06:31;;;;;;;14.38;10.48;;;;;;;;;;5026339;28;20428;-76
2022/07/24 02:08:56;;;;;;;14.30;10.93;;;;;;;;;;5006964;28;20107;-76
2022/07/24 02:11:22;;;;;;;12.07;10.88;;;;;;;;;;5032741;28;20505;-76
2022/07/24 02:13:47;;;;;;;11.98;10.43;;;;;;;;;;5069839;28;20155;-77
2022/07/24 02:16:12;;;;;;;11.40;10.18;;;;;;;;;;5053683;28;20032;-77
2022/07/24 02:18:38;;;;;;;12.18;10.88;;;;;;;;;;5040219;28;20503;-75
2022/07/24 02:21:06;;;;;;;12.35;10.93;;;;;;;;;;5035003;28;20044;-78
2022/07/24 02:23:32;;;;;;;15.32;10.63;;;;;;;;;;5030149;28;20650;-76
2022/07/24 02:25:57;;;;;;;13.82;11.85;;;;;;;;;;5037619;28;20470;-76
2022/07/24 02:28:22;;;;;;;13.15;10.75;;;;;;;;;;5037151;28;20162;-75
2022/07/24 02:30:48;;;;;;;22.60;12.40;;;;;;;;;;5033825;28;20103;-76
2022/07/24 02:33:16;;;;;;;13.68;11.15;;;;;;;;;;5015351;28;20115;-75
2022/07/24 02:35:41;;;;;;;15.43;10.55;;;;;;;;;;5018354;28;20043;-75
2022/07/24 02:38:06;;;;;;;14.25;10.68;;;;;;;;;;5051267;28;20032;-77
2022/07/24 02:40:32;;;;;;;12.60;11.10;;;;;;;;;;5033169;28;20174;-77
2022/07/24 02:42:57;;;;;;;13.23;11.82;;;;;;;;;;5028620;28;20111;-76
2022/07/24 02:45:23;;;;;;;13.13;11.70;;;;;;;;;;5020154;28;20029;-76
2022/07/24 02:47:52;;;;;;;15.13;11.52;;;;;;;;;;5013157;28;20112;-76
2022/07/24 02:50:21;;;;;;;12.00;10.50;;;;;;;;;;5014074;28;20071;-76
2022/07/24 02:52:47;;;;;;;13.10;11.65;;;;;;;;;;5040299;28;20101;-76
2022/07/24 02:55:12;;;;;;;14.55;11.27;;;;;;;;;;5042437;28;20471;-77
2022/07/24 02:57:37;;;;;;;12.93;11.50;;;;;;;;;;5051303;28;20066;-76
2022/07/24 03:00:08;;;;;;;16.65;12.13;;;;;;;;;;5049354;28;20064;-76
2022/07/24 03:02:33;;;;;;;14.68;11.20;;;;;;;;;;5034731;28;20107;-76
2022/07/24 03:04:59;;;;;;;15.02;11.93;;;;;;;;;;5032250;28;20391;-77
2022/07/24 03:07:24;;;;;;;19.38;13.32;;;;;;;;;;5037379;28;20039;-75
2022/07/24 03:09:49;;;;;;;16.98;12.70;;;;;;;;;;5017134;28;20144;-76
2022/07/24 03:12:15;;;;;;;14.48;12.93;;;;;;;;;;5017445;28;20127;-76
2022/07/24 03:14:40;;;;;;;15.80;12.13;;;;;;;;;;5006030;28;20144;-76
2022/07/24 03:17:05;;;;;;;14.25;11.48;;;;;;;;;;5051868;28;20117;-77
2022/07/24 03:19:31;;;;;;;15.85;13.25;;;;;;;;;;5049338;28;20049;-76
2022/07/24 03:21:56;;;;;;;16.67;13.30;;;;;;;;;;5036970;28;20182;-79
2022/07/24 03:24:21;;;;;;;14.70;12.95;;;;;;;;;;5036228;28;20034;-77
2022/07/24 03:26:47;;;;;;;16.15;13.38;;;;;;;;;;5034280;28;20040;-75
2022/07/24 03:29:12;;;;;;;18.33;13.25;;;;;;;;;;5050235;28;20033;-76
2022/07/24 03:31:37;;;;;;;16.08;13.55;;;;;;;;;;5002213;28;20119;-76
2022/07/24 03:34:03;;;;;;;16.42;13.95;;;;;;;;;;5050839;28;20387;-77
2022/07/24 03:36:31;;;;;;;20.95;13.88;;;;;;;;;;5035041;28;20036;-78
2022/07/24 03:38:56;;;;;;;17.58;13.50;;;;;;;;;;5027775;28;20037;-76
2022/07/24 03:41:22;;;;;;;16.17;13.20;;;;;;;;;;5053872;28;20032;-77
2022/07/24 03:43:47;;;;;;;17.10;14.15;;;;;;;;;;5020144;28;20119;-77
2022/07/24 03:46:12;;;;;;;16.00;13.05;;;;;;;;;;5040632;28;20056;-77
2022/07/24 03:48:38;;;;;;;15.35;13.57;;;;;;;;;;5053216;28;20048;-78
2022/07/24 03:51:03;;;;;;;15.82;13.00;;;;;;;;;;5037336;28;20218;-76
2022/07/24 03:53:29;;;;;;;14.85;12.60;;;;;;;;;;5038142;28;20082;-75
2022/07/24 03:55:54;;;;;;;15.25;13.32;;;;;;;;;;5024520;28;20139;-75
2022/07/24 03:58:20;;;;;;;17.73;13.50;;;;;;;;;;5040736;28;20044;-76
2022/07/24 04:00:45;;;;;;;15.50;12.65;;;;;;;;;;5036131;28;20440;-75
2022/07/24 04:03:10;;;;;;;17.50;13.88;;;;;;;;;;5037010;28;20606;-76
2022/07/24 04:05:36;;;;;;;14.45;12.30;;;;;;;;;;5039272;28;20567;-77
2022/07/24 04:08:01;;;;;;;16.17;14.40;;;;;;;;;;5022844;28;20079;-77
2022/07/24 04:10:26;;;;;;;17.98;15.45;;;;;;;;;;5070562;28;20108;-76
2022/07/24 04:12:52;;;;;;;17.10;13.40;;;;;;;;;;5071837;28;20601;-76
2022/07/24 04:15:17;;;;;;;14.52;13.02;;;;;;;;;;5005246;28;20140;-75
2022/07/24 04:17:43;;;;;;;16.13;13.73;;;;;;;;;;5028630;28;20032;-77
2022/07/24 04:20:09;;;;;;;16.50;12.63;;;;;;;;;;5054157;28;20131;-76
2022/07/24 04:22:34;;;;;;;15.18;13.52;;;;;;;;;;5047991;28;20024;-76
2022/07/24 04:25:00;;;;;;;18.80;14.30;;;;;;;;;;5009635;28;20028;-76
2022/07/24 04:27:25;;;;;;;15.02;13.48;;;;;;;;;;5071769;28;20124;-76
2022/07/24 04:29:51;;;;;;;16.05;14.32;;;;;;;;;;5013324;28;20482;-75
2022/07/24 04:32:16;;;;;;;15.32;13.55;;;;;;;;;;5015919;28;20116;-74
2022/07/24 04:34:41;;;;;;;20.08;14.68;;;;;;;;;;5023234;28;20047;-75
2022/07/24 04:37:07;;;;;;;16.30;14.63;;;;;;;;;;5054862;28;21116;-76
2022/07/24 04:39:32;;;;;;;17.10;14.23;;;;;;;;;;5035764;28;20513;-76
2022/07/24 04:41:59;;;;;;;16.92;14.75;;;;;;;;;;5041399;28;20036;-74
2022/07/24 04:44:24;;;;;;;15.65;13.20;;;;;;;;;;5053608;28;20107;-77
2022/07/24 04:46:50;;;;;;;17.02;13.60;;;;;;;;;;5040469;28;20122;-77
2022/07/24 04:49:15;;;;;;;16.00;13.43;;;;;;;;;;5021529;28;20195;-75
2022/07/24 04:51:40;;;;;;;15.77;13.57;;;;;;;;;;5054710;28;20115;-76
2022/07/24 04:54:06;;;;;;;18.27;13.23;;;;;;;;;;5054821;28;20138;-76
2022/07/24 04:56:32;;;;;;;16.75;13.13;;;;;;;;;;5046677;28;20036;-77
2022/07/24 04:59:01;;;;;;;13.73;12.32;;;;;;;;;;5022280;28;20422;-75
2022/07/24 05:01:26;;;;;;;17.40;12.45;;;;;;;;;;5003090;28;20040;-77
2022/07/24 05:03:52;;;;;;;16.15;12.80;;;;;;;;;;5038513;28;20510;-76
2022/07/24 05:06:17;;;;;;;16.45;12.30;;;;;;;;;;5033728;28;20170;-74
2022/07/24 05:08:42;;;;;;;15.27;12.15;;;;;;;;;;5024393;28;20059;-75
2022/07/24 05:11:08;;;;;;;19.45;13.48;;;;;;;;;;5004803;28;20080;-76
2022/07/24 05:13:33;;;;;;;17.92;12.88;;;;;;;;;;5041304;28;20034;-75
2022/07/24 05:16:01;;;;;;;17.67;12.57;;;;;;;;;;5047703;28;20104;-76
2022/07/24 05:18:26;;;;;;;18.05;12.80;;;;;;;;;;5044836;28;20032;-75
2022/07/24 05:20:52;;;;;;;17.77;13.52;;;;;;;;;;5019834;28;20485;-76
2022/07/24 05:23:17;;;;;;;14.20;12.70;;;;;;;;;;5020127;28;20124;-72
2022/07/24 05:25:43;;;;;;;16.10;12.60;;;;;;;;;;5061758;28;20543;-72
2022/07/24 05:28:08;;;;;;;18.20;13.02;;;;;;;;;;5060860;28;20025;-71
2022/07/24 05:30:33;;;;;;;17.70;13.00;;;;;;;;;;5064975;28;20120;-72
2022/07/24 05:32:59;;;;;;;17.17;13.73;;;;;;;;;;5043951;28;20099;-72
2022/07/24 05:35:24;;;;;;;16.73;13.05;;;;;;;;;;5031144;28;20107;-72
2022/07/24 05:37:50;;;;;;;16.17;13.00;;;;;;;;;;5051333;28;20127;-72
2022/07/24 05:40:15;;;;;;;17.83;14.32;;;;;;;;;;5043819;28;20115;-73
2022/07/24 05:42:40;;;;;;;18.48;13.65;;;;;;;;;;5034883;28;20514;-72
2022/07/24 05:45:06;;;;;;;15.80;12.90;;;;;;;;;;5054756;28;20083;-73
2022/07/24 05:47:38;;;;;;;17.80;15.25;;;;;;;;;;5045678;28;20043;-72
2022/07/24 05:50:08;;;;;;;16.95;13.55;;;;;;;;;;5062783;28;20040;-73
2022/07/24 05:52:33;;;;;;;15.75;13.52;;;;;;;;;;5036677;28;20107;-72
2022/07/24 05:54:59;;;;;;;18.15;13.40;;;;;;;;;;5044155;28;20032;-72
2022/07/24 05:57:24;;;;;;;19.90;14.27;;;;;;;;;;5042319;28;20441;-72
2022/07/24 05:59:49;;;;;;;21.05;15.27;;;;;;;;;;5045338;28;20040;-72
2022/07/24 06:02:15;;;;;;;16.27;14.38;;;;;;;;;;5061924;28;20052;-73
2022/07/24 06:04:43;;;;;;;16.20;13.88;;;;;;;;;;5062965;28;20467;-72
2022/07/24 06:07:09;;;;;;;18.15;13.75;;;;;;;;;;5046256;28;20029;-72
2022/07/24 06:09:35;;;;;;;17.27;12.68;;;;;;;;;;5046250;28;20119;-72
2022/07/24 06:12:01;;;;;;;20.30;14.40;;;;;;;;;;5038842;28;20037;-71
2022/07/24 06:14:26;;;;;;;16.33;14.43;;;;;;;;;;5059675;28;20388;-74
2022/07/24 06:16:52;;;;;;;21.80;15.02;;;;;;;;;;5062160;28;20099;-71
2022/07/24 06:19:17;;;;;;;25.15;16.17;;;;;;;;;;5042485;28;20181;-72
2022/07/24 06:21:42;;;;;;;22.40;15.57;;;;;;;;;;5066160;28;20055;-72
2022/07/24 06:24:08;;;;;;;26.05;16.17;;;;;;;;;;5042532;28;20055;-73
2022/07/24 06:26:35;;;;;;;17.60;15.57;;;;;;;;;;5044674;28;20499;-74
2022/07/24 06:29:01;;;;;;;21.77;17.52;;;;;;;;;;5052905;28;20020;-72
2022/07/24 06:31:26;;;;;;;20.23;17.25;;;;;;;;;;5023989;28;20435;-72
2022/07/24 06:33:52;;;;;;;20.73;15.88;;;;;;;;;;5059969;28;20037;-71
2022/07/24 06:36:17;;;;;;;17.73;15.68;;;;;;;;;;5036004;28;20123;-71
2022/07/24 06:38:42;;;;;;;19.98;15.77;;;;;;;;;;5039601;28;20124;-72
2022/07/24 06:41:08;;;;;;;24.05;17.65;;;;;;;;;;5063404;28;20046;-73
2022/07/24 06:43:33;;;;;;;19.45;15.77;;;;;;;;;;5030785;28;20103;-73
2022/07/24 06:45:58;;;;;;;20.30;16.10;;;;;;;;;;5063183;28;20029;-73
2022/07/24 06:48:24;;;;;;;17.20;15.18;;;;;;;;;;5063121;28;20043;-73
2022/07/24 06:50:49;;;;;;;17.77;15.52;;;;;;;;;;5044194;28;20119;-72
2022/07/24 06:53:15;;;;;;;20.02;16.17;;;;;;;;;;5034311;28;20146;-72
2022/07/24 06:55:40;;;;;;;20.90;14.98;;;;;;;;;;5023058;28;20067;-73
2022/07/24 06:58:05;;;;;;;14.73;13.10;;;;;;;;;;5035346;28;20032;-72
2022/07/24 07:00:31;;;;;;;16.65;13.50;;;;;;;;;;5035934;28;20048;-72
2022/07/24 07:02:56;;;;;;;15.93;12.60;;;;;;;;;;5061521;28;20040;-73
2022/07/24 07:05:23;;;;;;;18.83;14.30;;;;;;;;;;5030422;28;20460;-73
2022/07/24 07:07:49;;;;;;;15.43;13.18;;;;;;;;;;5061879;28;20116;-72
2022/07/24 07:10:14;;;;;;;16.13;12.40;;;;;;;;;;5036436;28;20493;-72
2022/07/24 07:12:40;;;;;;;14.40;12.40;;;;;;;;;;5048209;28;20056;-73
2022/07/24 07:15:05;;;;;;;13.45;11.18;;;;;;;;;;5052710;28;20055;-72
2022/07/24 07:17:31;;;;;;;13.55;11.27;;;;;;;;;;5041999;28;20032;-73
2022/07/24 07:19:56;;;;;;;14.25;10.18;;;;;;;;;;5017139;28;20131;-72
2022/07/24 07:22:21;;;;;;;11.60;9.55;;;;;;;;;;5064713;28;20491;-73
2022/07/24 07:24:47;;;;;;;10.25;8.82;;;;;;;;;;5066991;28;20055;-73
2022/07/24 07:27:12;;;;;;;10.00;9.00;;;;;;;;;;5056751;28;20056;-71
2022/07/24 07:29:38;;;;;;;12.18;8.95;;;;;;;;;;5055372;28;20024;-73
2022/07/24 07:32:03;;;;;;;10.65;8.65;;;;;;;;;;5066033;28;20472;-71
2022/07/24 07:34:29;;;;;;;12.00;8.27;;;;;;;;;;5050135;28;20137;-72
2022/07/24 07:36:54;;;;;;;14.18;9.55;;;;;;;;;;5054633;28;20115;-72
2022/07/24 07:39:19;;;;;;;12.80;10.23;;;;;;;;;;5036969;28;20551;-72
2022/07/24 07:41:45;;;;;;;12.40;10.40;;;;;;;;;;5047785;28;20111;-72
2022/07/24 07:44:10;;;;;;;12.77;10.27;;;;;;;;;;5070511;28;20078;-77
2022/07/24 07:46:36;;;;;;;11.23;9.63;;;;;;;;;;5012937;28;20120;-76
2022/07/24 07:49:01;;;;;;;12.73;10.75;;;;;;;;;;5035012;28;20132;-76
2022/07/24 07:51:27;;;;;;;11.40;9.68;;;;;;;;;;5062373;28;20036;-76
2022/07/24 07:53:52;;;;;;;14.00;10.77;;;;;;;;;;5038805;28;20187;-77
2022/07/24 07:56:17;;;;;;;15.85;11.10;;;;;;;;;;5042075;28;20556;-77
2022/07/24 07:58:43;;;;;;;15.07;10.00;;;;;;;;;;5053202;28;20042;-76
2022/07/24 08:01:09;;;;;;;10.98;8.82;;;;;;;;;;5027044;28;20052;-75
2022/07/24 08:03:35;;;;;;;14.90;7.78;;;;;;;;;;5016531;28;21186;-75
2022/07/24 08:06:00;;;;;;;11.77;7.38;;;;;;;;;;5049901;28;20063;-76
2022/07/24 08:08:26;;;;;;;10.63;6.65;;;;;;;;;;5030549;28;20024;-76
2022/07/24 08:10:51;;;;;;;6.85;5.60;;;;;;;;;;5068931;28;20035;-76
2022/07/24 08:13:17;;;;;;;6.50;4.93;;;;;;;;;;5001566;28;20049;-75
2022/07/24 08:15:43;;;;;;;8.13;4.45;;;;;;;;;;5019379;28;20033;-76
2022/07/24 08:18:10;;;;;;;11.27;4.28;;;;;;;;;;5045854;28;20443;-76
2022/07/24 08:20:35;;;;;;;4.85;3.78;;;;;;;;;;5037445;28;20040;-76
2022/07/24 08:23:01;;;;;;;5.85;3.80;;;;;;;;;;5024367;28;20085;-76
2022/07/24 08:25:26;;;;;;;5.18;3.30;;;;;;;;;;5065194;28;20056;-76
2022/07/24 08:27:52;;;;;;;6.47;3.58;;;;;;;;;;5038342;28;20062;-76
2022/07/24 08:30:18;;;;;;;4.70;3.42;;;;;;;;;;5050536;28;20462;-77
2022/07/24 08:32:43;;;;;;;3.97;3.47;;;;;;;;;;5035666;28;20044;-76
2022/07/24 08:35:09;;;;;;;5.47;2.88;;;;;;;;;;5035311;28;20543;-76
2022/07/24 08:37:38;;;;;;;5.13;3.20;;;;;;;;;;5034090;28;20036;-76
2022/07/24 08:40:04;;;;;;;7.35;3.53;;;;;;;;;;5018312;28;20044;-76
2022/07/24 08:42:30;;;;;;;5.60;3.47;;;;;;;;;;5041544;28;20514;-76
2022/07/24 08:44:55;;;;;;;5.57;3.40;;;;;;;;;;5022545;28;20032;-76
2022/07/24 08:47:21;;;;;;;3.80;3.20;;;;;;;;;;5014256;28;20108;-76
2022/07/24 08:49:46;;;;;;;4.60;3.53;;;;;;;;;;5047828;28;20363;-76
2022/07/24 08:52:14;;;;;;;4.13;2.95;;;;;;;;;;5017235;28;20028;-75
2022/07/24 08:54:39;;;;;;;3.90;2.70;;;;;;;;;;5020688;28;20105;-75
2022/07/24 08:57:05;;;;;;;5.35;2.63;;;;;;;;;;5035925;28;20062;-75
2022/07/24 08:59:30;;;;;;;3.92;2.75;;;;;;;;;;5037534;28;20630;-76
2022/07/24 09:01:56;;;;;;;4.60;2.47;;;;;;;;;;5013594;28;20047;-75
2022/07/24 09:04:32;;;;;;;3.97;2.88;;;;;;;;;;5016157;28;20440;-75
2022/07/24 09:06:58;;;;;;;3.47;2.95;;;;;;;;;;5043866;28;20028;-75
2022/07/24 09:09:23;;;;;;;3.70;2.80;;;;;;;;;;5036531;28;20040;-75
2022/07/24 09:11:48;;;;;;;5.40;2.35;;;;;;;;;;5045909;28;20082;-75
2022/07/24 09:14:32;;;;;;;3.63;2.55;;;;;;;;;;5048088;28;20437;-75
2022/07/24 09:17:08;;;;;;;4.78;2.67;;;;;;;;;;5040257;28;20036;-75
2022/07/24 09:19:58;;;;;;;3.47;2.42;;;;;;;;;;5020617;28;20099;-76
2022/07/24 09:22:29;;;;;;;3.33;2.72;;;;;;;;;;5032967;28;20032;-75
2022/07/24 09:25:24;;;;;;;3.45;2.75;;;;;;;;;;5067642;28;20483;-75
2022/07/24 09:27:52;;;;;;;3.55;2.38;;;;;;;;;;5035220;28;20040;-74
2022/07/24 09:30:40;;;;;;;3.38;2.28;;;;;;;;;;5065792;28;20051;-74
2022/07/24 09:33:12;;;;;;;4.55;2.13;;;;;;;;;;5032294;28;20078;-75
2022/07/24 09:35:42;;;;;;;4.05;2.45;;;;;;;;;;5046411;28;20507;-75
2022/07/24 09:38:08;;;;;;;18.77;2.90;;;;;;;;;;5016109;28;20060;-75
2022/07/24 09:40:35;;;;;;;4.00;2.47;;;;;;;;;;5031372;28;20052;-75
2022/07/24 09:43:16;;;;;;;4.78;2.70;;;;;;;;;;5049559;28;20495;-75
2022/07/24 09:46:07;;;;;;;3.22;2.35;;;;;;;;;;5062231;28;20033;-75
2022/07/24 09:48:37;;;;;;;3.65;2.60;;;;;;;;;;5003116;28;20024;-74
2022/07/24 09:51:13;;;;;;;6.60;2.70;;;;;;;;;;5042427;28;20085;-75
2022/07/24 09:53:39;;;;;;;3.45;2.20;;;;;;;;;;5008303;28;20036;-75
2022/07/24 09:56:11;;;;;;;4.95;2.45;;;;;;;;;;5027013;28;20413;-75
2022/07/24 09:58:38;;;;;;;3.72;2.30;;;;;;;;;;5042379;28;20473;-75
2022/07/24 10:01:04;;;;;;;3.05;2.20;;;;;;;;;;5030729;28;20048;-74
2022/07/24 10:03:33;;;;;;;3.80;2.50;;;;;;;;;;5041598;28;20024;-75
2022/07/24 10:06:03;;;;;;;3.97;2.20;;;;;;;;;;5029819;28;20029;-75
2022/07/24 10:08:29;;;;;;;2.72;2.05;;;;;;;;;;5033092;28;20066;-74
2022/07/24 10:10:55;;;;;;;3.20;2.20;;;;;;;;;;5028873;28;20060;-74
2022/07/24 10:13:20;;;;;;;3.83;2.22;;;;;;;;;;5043550;28;20033;-74
2022/07/24 10:15:53;;;;;;;4.78;2.42;;;;;;;;;;5029316;28;20027;-74
2022/07/24 10:18:18;;;;;;;4.50;2.20;;;;;;;;;;4991144;28;20099;-74
2022/07/24 10:20:45;;;;;;;4.05;2.00;;;;;;;;;;5006918;28;22222;-75
2022/07/24 10:23:20;;;;;;;3.65;2.13;;;;;;;;;;5014593;28;20052;-75
2022/07/24 10:26:04;;;;;;;4.30;2.00;;;;;;;;;;5008415;28;20496;-74
2022/07/24 10:28:43;;;;;;;3.60;2.22;;;;;;;;;;5041287;28;20024;-75
2022/07/24 10:31:13;;;;;;;3.85;2.53;;;;;;;;;;5034802;28;20417;-75
2022/07/24 10:33:40;;;;;;;3.53;2.40;;;;;;;;;;5029614;28;20035;-74
2022/07/24 10:36:15;;;;;;;9.82;2.15;;;;;;;;;;5029525;28;20401;-77
2022/07/24 10:38:42;;;;;;;4.65;2.35;;;;;;;;;;5039529;28;20481;-78
2022/07/24 10:41:14;;;;;;;3.78;2.28;;;;;;;;;;5014450;28;20052;-78
2022/07/24 10:43:40;;;;;;;4.70;2.30;;;;;;;;;;5015433;28;20056;-78
2022/07/24 10:46:05;;;;;;;3.65;1.90;;;;;;;;;;5025015;28;20055;-77
2022/07/24 10:48:32;;;;;;;3.77;2.03;;;;;;;;;;5038719;28;20039;-77
2022/07/24 10:51:00;;;;;;;3.97;2.60;;;;;;;;;;4998739;28;20283;-77
2022/07/24 10:53:27;;;;;;;4.13;2.00;;;;;;;;;;5049570;28;20500;-76
2022/07/24 10:55:54;;;;;;;3.72;2.53;;;;;;;;;;5034457;28;20124;-76
2022/07/24 10:58:21;;;;;;;4.00;2.20;;;;;;;;;;4999993;28;20573;-72
2022/07/24 11:00:49;;;;;;;4.13;2.17;;;;;;;;;;5053620;28;20510;-72
2022/07/24 11:03:24;;;;;;;3.42;2.00;;;;;;;;;;5054747;28;20044;-72
2022/07/24 11:06:05;;;;;;;2.78;2.20;;;;;;;;;;5043068;28;20037;-71
2022/07/24 11:08:33;;;;;;;4.35;2.42;;;;;;;;;;5057722;28;20477;-71
2022/07/24 11:11:07;;;;;;;4.53;2.30;;;;;;;;;;5059045;28;20021;-72
2022/07/24 11:13:32;;;;;;;3.45;2.33;;;;;;;;;;5041417;28;20452;-72
2022/07/24 11:16:10;;;;;;;4.37;2.37;;;;;;;;;;5056413;28;20201;-72
2022/07/24 11:18:38;;;;;;;3.30;2.20;;;;;;;;;;5055902;28;20279;-71
2022/07/24 11:21:04;;;;;;;4.97;2.35;;;;;;;;;;5045026;28;20040;-71
2022/07/24 11:23:29;;;;;;;3.35;2.30;;;;;;;;;;5056631;28;21417;-71
2022/07/24 11:26:31;;;;;;;5.60;2.38;;;;;;;;;;5050939;28;20035;-71
2022/07/24 11:29:11;;;;;;;3.22;2.55;;;;;;;;;;5056867;28;20028;-70
2022/07/24 11:31:37;;;;;;;4.20;2.47;;;;;;;;;;5062990;28;20093;-71
2022/07/24 11:34:02;;;;;;;4.47;2.40;;;;;;;;;;5036747;28;20073;-71
2022/07/24 11:36:28;;;;;;;4.13;2.50;;;;;;;;;;5047537;28;20056;-70
2022/07/24 11:38:53;;;;;;;4.47;2.45;;;;;;;;;;5047429;28;20103;-70
2022/07/24 11:41:18;;;;;;;3.97;2.60;;;;;;;;;;5048511;28;21674;-73
2022/07/24 11:43:51;;;;;;;3.95;2.60;;;;;;;;;;5061716;28;20128;-74
2022/07/24 11:46:31;;;;;;;;;;;;;;;;;;5041044;28;20028;-72
2022/07/24 11:49:03;;;;;;;13.48;2.75;;;;;;;;;;5054809;28;19912;-76
2022/07/24 11:51:29;;;;;;;5.03;2.60;;;;;;;;;;5019254;28;20392;-78
2022/07/24 11:53:54;;;;;;;4.18;2.80;;;;;;;;;;5013494;28;20147;-77
2022/07/24 11:56:19;;;;;;;3.83;2.20;;;;;;;;;;5028073;28;20495;-77
2022/07/24 11:58:45;;;;;;;6.80;2.42;;;;;;;;;;5027831;28;20582;-77
2022/07/24 12:01:20;;;;;;;3.88;2.42;;;;;;;;;;5010269;28;20112;-77
2022/07/24 12:03:53;;;;;;;5.50;2.55;;;;;;;;;;5069069;28;20032;-76
2022/07/24 12:06:18;;;;;;;;;;;;;;;;;;5052968;28;20082;-76
2022/07/24 12:08:44;;;;;;;6.25;3.03;;;;;;;;;;5056984;28;22233;-77
2022/07/24 12:11:10;;;;;;;5.03;2.67;;;;;;;;;;4992549;28;20044;-76
2022/07/24 12:13:36;;;;;;;7.68;2.72;;;;;;;;;;5057276;28;20063;-76
2022/07/24 12:16:01;;;;;;;5.32;2.35;;;;;;;;;;5023927;28;20024;-76
2022/07/24 12:18:27;;;;;;;6.03;2.40;;;;;;;;;;5077399;28;20115;-76
2022/07/24 12:20:58;;;;;;;4.55;2.40;;;;;;;;;;5029947;28;20645;-76
2022/07/24 12:23:23;;;;;;;4.57;2.95;;;;;;;;;;5038167;28;20032;-78
2022/07/24 12:25:48;;;;;;;3.75;2.60;;;;;;;;;;5043152;28;20064;-76
2022/07/24 12:28:15;;;;;;;3.97;2.67;;;;;;;;;;5053077;28;20071;-77
2022/07/24 12:30:45;;;;;;;3.55;2.17;;;;;;;;;;5015444;28;20495;-76
2022/07/24 12:33:13;;;;;;;3.25;2.13;;;;;;;;;;5037596;28;20020;-76
2022/07/24 12:36:01;;;;;;;4.93;2.58;;;;;;;;;;5040535;28;20032;-77
2022/07/24 12:38:30;;;;;;;4.63;2.72;;;;;;;;;;5046929;28;20021;-77
2022/07/24 12:41:04;;;;;;;4.05;2.45;;;;;;;;;;5053554;28;20040;-76
2022/07/24 12:43:30;;;;;;;5.10;2.50;;;;;;;;;;5074071;28;20044;-77
2022/07/24 12:46:08;;;;;;;4.75;2.47;;;;;;;;;;5053315;28;20076;-77
2022/07/24 12:48:33;;;;;;;4.43;2.70;;;;;;;;;;5036816;28;20052;-77
2022/07/24 12:51:19;;;;;;;3.75;2.40;;;;;;;;;;5048009;28;20503;-77
2022/07/24 12:53:44;;;;;;;2.97;2.40;;;;;;;;;;5040326;28;21539;-76
2022/07/24 12:56:14;;;;;;;3.80;2.50;;;;;;;;;;5057370;28;20065;-77
2022/07/24 12:58:50;;;;;;;3.72;2.30;;;;;;;;;;5039273;28;20048;-76
2022/07/24 13:01:15;;;;;;;8.25;2.72;;;;;;;;;;5025173;28;20053;-76
2022/07/24 13:03:41;;;;;;;4.78;2.05;;;;;;;;;;5039014;28;20059;-77
2022/07/24 13:06:06;;;;;;;3.70;2.20;;;;;;;;;;5044900;28;20031;-76
2022/07/24 13:08:31;;;;;;;4.43;2.42;;;;;;;;;;5062550;28;20115;-76
2022/07/24 13:10:57;;;;;;;5.70;2.10;;;;;;;;;;5003999;28;20112;-76
2022/07/24 13:13:22;;;;;;;3.33;2.67;;;;;;;;;;5052358;28;20053;-76
2022/07/24 13:15:47;;;;;;;3.47;2.53;;;;;;;;;;5047536;28;20051;-76
2022/07/24 13:18:13;;;;;;;6.30;2.92;;;;;;;;;;5045029;28;20037;-77
2022/07/24 13:20:38;;;;;;;4.35;2.25;;;;;;;;;;5039161;28;20053;-77
2022/07/24 13:23:04;;;;;;;4.72;2.10;;;;;;;;;;5026833;28;20462;-78
2022/07/24 13:25:29;;;;;;;5.07;2.50;;;;;;;;;;5062480;28;20485;-77
2022/07/24 13:27:54;;;;;;;6.13;2.50;;;;;;;;;;5028268;28;20119;-77
2022/07/24 13:30:20;;;;;;;3.90;2.53;;;;;;;;;;5029052;28;20029;-77
2022/07/24 13:32:45;;;;;;;4.93;2.65;;;;;;;;;;5044867;28;20097;-77
2022/07/24 13:35:11;;;;;;;4.65;2.42;;;;;;;;;;5019605;28;20490;-77
2022/07/24 13:37:36;;;;;;;3.10;2.25;;;;;;;;;;5024005;28;20036;-77
2022/07/24 13:40:03;;;;;;;4.95;2.80;;;;;;;;;;5049850;28;20052;-77
2022/07/24 13:42:29;;;;;;;5.50;2.53;;;;;;;;;;5049545;28;20035;-77
2022/07/24 13:44:54;;;;;;;5.30;2.20;;;;;;;;;;5010569;28;20033;-77
2022/07/24 13:47:19;;;;;;;4.00;2.58;;;;;;;;;;5047621;28;20044;-77
2022/07/24 13:49:45;;;;;;;3.88;2.33;;;;;;;;;;5047105;28;20745;-78
2022/07/24 13:52:10;;;;;;;4.88;2.28;;;;;;;;;;5028601;28;20108;-78
2022/07/24 13:54:36;;;;;;;5.30;3.50;;;;;;;;;;5040361;28;20121;-78
2022/07/24 13:57:03;;;;;;;6.40;2.47;;;;;;;;;;5052497;28;20041;-78
2022/07/24 13:59:28;;;;;;;5.20;2.30;;;;;;;;;;5046907;28;20527;-78
2022/07/24 14:01:53;;;;;;;4.32;2.33;;;;;;;;;;5039703;28;20040;-78
2022/07/24 14:04:19;;;;;;;3.80;2.28;;;;;;;;;;5030970;28;20453;-78
2022/07/24 14:06:44;;;;;;;4.90;2.25;;;;;;;;;;5060841;28;20061;-78
2022/07/24 14:09:09;;;;;;;5.60;2.42;;;;;;;;;;5042770;28;20060;-78
2022/07/24 14:11:35;;;;;;;3.60;2.15;;;;;;;;;;5016157;28;20057;-77
2022/07/24 14:14:00;;;;;;;4.10;2.25;;;;;;;;;;5026515;28;20036;-77
2022/07/24 14:16:26;;;;;;;4.65;2.50;;;;;;;;;;5021083;28;22537;-77
2022/07/24 14:18:51;;;;;;;3.22;2.00;;;;;;;;;;5030425;28;20127;-77
2022/07/24 14:21:16;;;;;;;4.90;2.38;;;;;;;;;;5045972;28;20105;-77
2022/07/24 14:23:42;;;;;;;3.88;2.17;;;;;;;;;;5045282;28;20507;-77
2022/07/24 14:26:07;;;;;;;4.47;2.10;;;;;;;;;;5026019;28;20107;-77
2022/07/24 14:28:32;;;;;;;4.68;2.63;;;;;;;;;;5045631;28;20056;-78